Terminal Aerodrome Forecast
Issued by NWS Pueblo, CO

Home | Current Version | Previous Version | Text Only | Print | Product List | Glossary On
Versions: 1 2 3 4 5 6 7 8 9 10 11 12 13 14 15 16
000
FTUS45 KPUB 211125
TAFPUB
TAF
KPUB 211125Z 2112/2212 VRB05KT P6SM SKC
     FM211700 21011KT P6SM SKC
     FM212000 19013G23KT P6SM SKC
     FM220200 19009KT P6SM SKC
     FM220700 25007KT P6SM SKC=

USA.gov is the U.S. government's official web portal to all federal, state and local government web resources and services.